Miami International, FL

1:08 AM EDT on September 23, 2014 (GMT -0400)
Opa Locka | Change Station
CLOSE
Current Station
Airport
Location: Opa Locka,
Elevation: 10 ft
Nearby Weather Stations

Elev 10 ft 25.91 °N, 80.28 °W | Updated 15 minutes ago

Rain
Rain
76 °F
Feels Like 76 °F
N
8
Wind Variable Wind from East

Today
High -- | Low -- °F
--% Chance of Precip.
Yesterday
High -- | Low -- °F
Precip. -- in
7:10 AM 7:16 PM
Waning Crescent, 1% visible
Pressure 30.02 in
Visibility 10.0 miles
Clouds Few 1200 ft
Scattered Clouds 1600 ft
Scattered Clouds 6500 ft
Dew Point 73 °F
Humidity 91%
Rainfall 0.01 in
Snow Depth Not available.
UV 0 out of 12
Pollen 2.20 out of 12
Ozone Good
PM2.5 Good
Flu Activity Not available.
METAR KOPF 230453Z AUTO 10007KT 10SM -RA FEW012 SCT016 SCT065 24/23 A3002 RMK AO2 RAE02B52 TSB0354E09B16E31 SLP165 P0001 T02440228 403170244

More Conditions Fewer Conditions

Pressure 30.02 in
Visibility 10.0 miles
Clouds Few 1200 ft
Scattered Clouds 1600 ft
Scattered Clouds 6500 ft
Dew Point 73 °F
Humidity 91%
Rainfall 0.01 in
Snow Depth Not available.
UV 0 out of 12
Pollen 2.20 out of 12
Ozone Good
PM2.5 Good
Flu Activity Not available.
METAR KOPF 230453Z AUTO 10007KT 10SM -RA FEW012 SCT016 SCT065 24/23 A3002 RMK AO2 RAE02B52 TSB0354E09B16E31 SLP165 P0001 T02440228 403170244

More Conditions Fewer Conditions

Nowcast | as of 12:08 am EDT on September 23, 2014

at 1207 am EDT...Doppler radar indicated a line of thunderstorms extending from 8 miles southeast of Lauderdale-by-the- Sea to Coral Gables to near Homestead Miami Speedway moving northwest at 15 mph. Locations impacted include... Miami...Hialeah...Fort Lauderdale...Pembroke Pines...Hollywood... Miramar...Coral Springs...Pompano Beach...Davie...and Miami Beach. Frequent cloud-to-ground lightning...torrential downpours...and wind gusts to 35 mph are possible.

×

10-Day Weather Forecast

Almanac

Astronomy

Sep. 23, 2014 Rise Set
Actual Time 7:10 AM EDT 7:16 PM EDT
Civil Twilight 6:47 AM EDT 7:39 PM EDT
Nautical Twilight 6:20 AM EDT 8:06 PM EDT
Astronomical Twilight 5:53 AM EDT 8:32 PM EDT
Moon 6:34 AM EDT 6:55 PM EDT
Length of Visible Light 12h 52m
Length of Day
12h 06m
Tomorrow will be 1m 30s shorter.
Waning Crescent, 1% of the Moon is Illuminated
Today
Waning Crescent
Sep 24
New
Oct 1
First Quarter
Oct 8
Full
Oct 15
Last Quarter

Today's Extremes

State Highs State Lows

Community

WunderPhotos

Upload Photos

1,755,607 photos uploaded!

Nearby

Air Quality

  Air Quality AQ Index Pollutant
Yesterday Good
PM2.5
Yesterday Good
OZONE
Current Good
PM2.5
Current Good
OZONE
Monday Good
OZONE
Monday Good
PM2.5
Tuesday Good
OZONE
Tuesday Good
PM2.5

Snow Depth

Station Depth Elevation
No new snow has been reported.

Earthquake Activity

City Distance Mag. Time & Date
No recent earthquake activity has been reported nearby.
Minimum magnitude displayed is 2.5.

Coastal Water Temperatures

Place Temperature
Virginia Key, FL 84.9 °F

Nearby Weather Stations